createdAt,value
2017-08-23T00:00:06.937Z,95.10
2017-08-23T00:02:34.449Z,95.10
2017-08-23T00:05:01.988Z,95.20
2017-08-23T00:07:29.506Z,95.30
2017-08-23T00:09:57.034Z,96.00
2017-08-23T00:12:24.564Z,96.00
2017-08-23T00:14:52.073Z,96.10
2017-08-23T00:17:19.623Z,96.00
2017-08-23T00:19:47.164Z,96.00
2017-08-23T00:22:14.702Z,96.30
2017-08-23T00:24:42.238Z,95.90
2017-08-23T00:27:09.774Z,96.20
2017-08-23T00:29:37.274Z,96.40
2017-08-23T00:32:04.803Z,96.40
2017-08-23T00:34:32.307Z,96.90
2017-08-23T00:36:59.815Z,97.00
2017-08-23T00:39:27.346Z,97.00
2017-08-23T00:41:54.850Z,97.50
2017-08-23T00:44:22.358Z,97.90
2017-08-23T00:46:49.902Z,97.80
2017-08-23T00:49:17.413Z,97.70
2017-08-23T00:51:44.918Z,97.70
2017-08-23T00:54:12.466Z,97.60
2017-08-23T00:56:40.002Z,97.90
2017-08-23T00:59:07.506Z,97.90
2017-08-23T01:01:35.043Z,97.60
2017-08-23T01:04:02.551Z,96.90
2017-08-23T01:06:30.059Z,96.80
2017-08-23T01:08:57.609Z,96.80
2017-08-23T01:11:25.119Z,96.60
2017-08-23T01:13:52.632Z,96.80
2017-08-23T01:16:20.170Z,96.80
2017-08-23T01:18:47.679Z,97.10
2017-08-23T01:21:15.190Z,97.30
2017-08-23T01:23:42.723Z,97.50
2017-08-23T01:26:10.239Z,97.10
2017-08-23T01:28:37.775Z,97.40
2017-08-23T01:31:05.279Z,97.40
2017-08-23T01:33:32.818Z,97.40
2017-08-23T01:36:00.339Z,97.10
2017-08-23T01:38:27.850Z,97.00
2017-08-23T01:40:55.387Z,97.00
2017-08-23T01:43:22.916Z,97.30
2017-08-23T01:45:50.429Z,97.60
2017-08-23T01:48:17.969Z,97.60
2017-08-23T01:50:45.483Z,97.70
2017-08-23T01:53:12.999Z,97.50
2017-08-23T01:55:40.533Z,97.60
2017-08-23T01:58:08.049Z,97.70
2017-08-23T02:00:35.562Z,97.90
2017-08-23T02:03:03.101Z,97.90
2017-08-23T02:05:30.610Z,97.90
2017-08-23T02:07:58.125Z,98.10
2017-08-23T02:10:25.662Z,97.30
2017-08-23T02:12:53.186Z,97.60
2017-08-23T02:15:20.699Z,96.90
2017-08-23T02:17:48.229Z,97.60
2017-08-23T02:20:15.740Z,97.20
2017-08-23T02:22:43.255Z,97.00
2017-08-23T02:25:10.782Z,97.20
2017-08-23T02:27:38.352Z,97.80
2017-08-23T02:30:05.874Z,97.70
2017-08-23T02:32:33.383Z,97.70
2017-08-23T02:35:00.928Z,97.30
2017-08-23T02:37:28.443Z,97.70
2017-08-23T02:39:55.951Z,97.40
2017-08-23T02:42:23.487Z,97.20
2017-08-23T02:44:51.001Z,97.40
2017-08-23T02:47:18.518Z,97.80
2017-08-23T02:49:46.059Z,97.40
2017-08-23T02:52:13.571Z,97.50
2017-08-23T02:54:41.088Z,97.30
2017-08-23T02:57:08.635Z,97.50
2017-08-23T02:59:36.142Z,97.20
2017-08-23T03:02:03.660Z,97.10
2017-08-23T03:04:31.199Z,97.30
2017-08-23T03:06:58.707Z,98.10
2017-08-23T03:09:26.214Z,98.50
2017-08-23T03:11:53.742Z,98.60
2017-08-23T03:14:21.256Z,98.50
2017-08-23T03:16:48.775Z,98.40
2017-08-23T03:19:16.335Z,98.60
2017-08-23T03:21:43.839Z,98.70
2017-08-23T03:24:11.347Z,98.70
2017-08-23T03:26:38.883Z,98.80
2017-08-23T03:29:06.406Z,98.90
2017-08-23T03:31:33.930Z,99.60
2017-08-23T03:34:01.472Z,98.90
2017-08-23T03:36:28.979Z,99.60
2017-08-23T03:38:56.490Z,99.10
2017-08-23T03:41:24.027Z,99.00
2017-08-23T03:43:51.539Z,99.00
2017-08-23T03:46:19.055Z,98.90
2017-08-23T03:48:46.586Z,98.10
2017-08-23T03:51:14.098Z,97.90
2017-08-23T03:53:41.611Z,97.80
2017-08-23T03:56:09.143Z,98.40
2017-08-23T03:58:36.645Z,98.70
2017-08-23T04:01:04.154Z,98.40
2017-08-23T04:03:31.691Z,98.60
2017-08-23T04:05:59.194Z,98.80
2017-08-23T04:08:26.703Z,98.60
2017-08-23T04:10:54.239Z,98.40
2017-08-23T04:13:21.755Z,98.10
2017-08-23T04:15:49.280Z,98.10
2017-08-23T04:18:16.800Z,97.90
2017-08-23T04:20:44.330Z,98.10
2017-08-23T04:23:11.847Z,97.90
2017-08-23T04:25:39.355Z,97.40
2017-08-23T04:28:06.895Z,97.30
2017-08-23T04:30:34.407Z,96.60
2017-08-23T04:33:01.915Z,96.60
2017-08-23T04:35:29.455Z,97.30
2017-08-23T04:37:56.990Z,98.00
2017-08-23T04:40:24.523Z,98.10
2017-08-23T04:42:52.026Z,98.30
2017-08-23T04:45:19.539Z,98.40
2017-08-23T04:47:47.071Z,98.60
2017-08-23T04:50:14.611Z,98.00
2017-08-23T04:52:42.147Z,97.50
2017-08-23T04:55:09.655Z,97.30
2017-08-23T04:57:37.163Z,97.20
2017-08-23T05:00:04.694Z,97.30
2017-08-23T05:02:32.211Z,97.20
2017-08-23T05:04:59.747Z,97.40
2017-08-23T05:07:27.278Z,96.80
2017-08-23T05:09:54.784Z,96.90
2017-08-23T05:12:22.310Z,96.20
2017-08-23T05:14:49.827Z,96.50
2017-08-23T05:17:17.338Z,96.50
2017-08-23T05:19:44.877Z,95.60
2017-08-23T05:22:12.383Z,96.20
2017-08-23T05:24:39.886Z,96.50
2017-08-23T05:27:07.414Z,96.20
2017-08-23T05:29:34.922Z,95.80
2017-08-23T05:32:02.441Z,95.00
2017-08-23T05:34:29.962Z,92.60
2017-08-23T05:36:57.466Z,93.00
2017-08-23T05:39:24.999Z,93.20
2017-08-23T05:41:52.507Z,94.60
2017-08-23T05:44:20.018Z,94.60
2017-08-23T05:46:47.543Z,93.80
2017-08-23T05:49:15.078Z,92.80
2017-08-23T05:51:42.577Z,92.90
2017-08-23T05:54:10.085Z,92.20
2017-08-23T05:56:37.614Z,92.30
2017-08-23T05:59:05.137Z,93.20
2017-08-23T06:01:32.648Z,91.40
2017-08-23T06:04:00.154Z,90.70
2017-08-23T06:06:27.695Z,91.30
2017-08-23T06:08:55.222Z,92.00
2017-08-23T06:11:22.725Z,92.80
2017-08-23T06:13:50.234Z,92.30
2017-08-23T06:16:17.757Z,91.40
2017-08-23T06:18:45.294Z,90.80
2017-08-23T06:21:12.794Z,91.40
2017-08-23T06:23:40.334Z,90.10
2017-08-23T06:26:07.842Z,90.30
2017-08-23T06:28:35.346Z,90.00
2017-08-23T06:31:02.875Z,89.00
2017-08-23T06:33:30.379Z,88.70
2017-08-23T06:35:57.878Z,87.30
2017-08-23T06:38:25.406Z,86.10
2017-08-23T06:40:52.914Z,85.80
2017-08-23T06:43:20.423Z,85.40
2017-08-23T06:45:47.950Z,86.60
2017-08-23T06:48:15.468Z,86.60
2017-08-23T06:50:42.970Z,83.90
2017-08-23T06:53:10.505Z,83.90
2017-08-23T06:55:38.010Z,83.00
2017-08-23T06:58:05.522Z,82.50
2017-08-23T07:00:33.055Z,82.50
2017-08-23T07:03:00.561Z,83.30
2017-08-23T07:05:28.070Z,81.80
2017-08-23T07:07:55.607Z,81.50
2017-08-23T07:10:23.209Z,79.80
2017-08-23T07:12:50.709Z,81.50
2017-08-23T07:15:18.233Z,81.70
2017-08-23T07:17:45.738Z,81.10
2017-08-23T07:20:13.234Z,80.80
2017-08-23T07:22:40.763Z,80.90
2017-08-23T07:25:08.279Z,81.00
2017-08-23T07:27:35.786Z,79.80
2017-08-23T07:30:03.314Z,79.60
2017-08-23T07:32:30.817Z,79.60
2017-08-23T07:34:58.313Z,79.90
2017-08-23T07:37:25.838Z,80.00
2017-08-23T07:39:53.342Z,78.50
2017-08-23T07:42:20.850Z,80.60
2017-08-23T07:44:48.387Z,78.90
2017-08-23T07:47:15.893Z,78.10
2017-08-23T07:49:43.398Z,80.10
2017-08-23T07:52:10.926Z,79.40
2017-08-23T07:54:38.435Z,79.40
2017-08-23T07:57:05.934Z,79.60
2017-08-23T07:59:33.471Z,78.50
2017-08-23T08:02:00.986Z,78.60
2017-08-23T08:04:28.495Z,78.50
2017-08-23T08:06:56.030Z,78.40
2017-08-23T08:09:23.543Z,77.70
2017-08-23T08:11:51.051Z,76.50
2017-08-23T08:14:18.578Z,76.70
2017-08-23T08:16:46.086Z,76.80
2017-08-23T08:19:13.689Z,75.70
2017-08-23T08:21:41.216Z,75.80
2017-08-23T08:24:08.724Z,75.70
2017-08-23T08:26:36.245Z,77.00
2017-08-23T08:29:03.767Z,75.00
2017-08-23T08:31:31.289Z,74.00
2017-08-23T08:33:58.815Z,74.90
2017-08-23T08:36:26.329Z,73.70
2017-08-23T08:38:53.843Z,74.90
2017-08-23T08:41:21.384Z,75.80
2017-08-23T08:43:48.903Z,74.40
2017-08-23T08:46:16.411Z,73.60
2017-08-23T08:48:44.342Z,74.40
2017-08-23T08:51:11.843Z,74.40
2017-08-23T08:53:39.350Z,74.00
2017-08-23T08:56:06.908Z,72.80
2017-08-23T08:58:34.430Z,73.40
2017-08-23T09:01:01.930Z,72.80
2017-08-23T09:03:29.462Z,72.30
2017-08-23T09:05:56.968Z,71.70
2017-08-23T09:08:24.471Z,74.00
2017-08-23T09:10:51.999Z,74.00
2017-08-23T09:13:19.508Z,73.70
2017-08-23T09:15:47.018Z,72.40
2017-08-23T09:18:14.546Z,71.30
2017-08-23T09:20:42.051Z,70.80
2017-08-23T09:26:08.342Z,70.80
2017-08-23T09:28:35.837Z,69.30
2017-08-23T09:31:03.337Z,70.90
2017-08-23T09:33:30.865Z,70.50
2017-08-23T09:35:58.362Z,68.40
2017-08-23T09:38:25.889Z,69.20
2017-08-23T09:40:53.386Z,69.20
2017-08-23T09:43:20.886Z,68.30
2017-08-23T09:45:48.414Z,68.90
2017-08-23T09:48:15.933Z,68.20
2017-08-23T09:50:43.438Z,67.60
2017-08-23T09:53:10.961Z,67.70
2017-08-23T09:55:38.462Z,67.90
2017-08-23T09:58:05.966Z,69.10
2017-08-23T10:00:33.505Z,67.20
2017-08-23T10:03:01.021Z,66.70
2017-08-23T10:05:28.545Z,69.10
2017-08-23T10:07:56.480Z,67.10
2017-08-23T10:10:23.981Z,66.80
2017-08-23T10:12:51.503Z,66.40
2017-08-23T10:15:19.001Z,65.60
2017-08-23T10:17:46.502Z,65.30
2017-08-23T10:20:14.041Z,67.50
2017-08-23T10:22:41.541Z,66.30
2017-08-23T10:25:09.037Z,67.80
2017-08-23T10:27:36.559Z,67.10
2017-08-23T10:30:04.058Z,64.80
2017-08-23T10:32:31.553Z,64.50
2017-08-23T10:34:59.074Z,65.80
2017-08-23T10:37:26.574Z,65.20
2017-08-23T10:39:54.073Z,63.80
2017-08-23T10:42:21.590Z,66.40
2017-08-23T10:44:49.085Z,63.90
2017-08-23T10:47:16.581Z,66.20
2017-08-23T10:49:44.106Z,66.00
2017-08-23T10:52:11.601Z,65.00
2017-08-23T10:54:39.093Z,64.10
2017-08-23T10:57:06.617Z,64.60
2017-08-23T10:59:34.122Z,64.50
2017-08-23T11:02:01.633Z,64.30
2017-08-23T11:04:29.155Z,63.10
2017-08-23T11:06:56.690Z,64.20
2017-08-23T11:09:24.194Z,63.70
2017-08-23T11:11:51.714Z,62.80
2017-08-23T11:14:19.250Z,63.60
2017-08-23T11:16:46.746Z,62.80
2017-08-23T11:19:14.318Z,64.90
2017-08-23T11:21:41.834Z,63.70
2017-08-23T11:24:09.332Z,63.30
2017-08-23T11:26:36.838Z,63.00
2017-08-23T11:29:04.362Z,63.40
2017-08-23T11:31:31.866Z,64.10
2017-08-23T11:33:59.376Z,62.80
2017-08-23T11:36:26.897Z,63.20
2017-08-23T11:38:54.398Z,62.10
2017-08-23T11:41:21.906Z,62.60
2017-08-23T11:43:49.430Z,62.10
2017-08-23T11:46:16.950Z,62.10
2017-08-23T11:48:44.450Z,62.40
2017-08-23T11:51:11.991Z,62.40
2017-08-23T11:53:39.488Z,65.20
2017-08-23T11:56:06.982Z,65.20
2017-08-23T11:58:34.512Z,64.10
2017-08-23T12:01:02.009Z,64.10
2017-08-23T12:03:29.506Z,63.20
2017-08-23T12:05:57.025Z,65.00
2017-08-23T12:08:24.919Z,63.50
2017-08-23T12:10:52.418Z,63.40
2017-08-23T12:13:19.940Z,62.90
2017-08-23T12:15:47.442Z,63.40
2017-08-23T12:18:14.951Z,63.00
2017-08-23T12:20:42.478Z,64.30
2017-08-23T12:23:09.986Z,63.70
2017-08-23T12:25:37.486Z,62.60
2017-08-23T12:28:05.013Z,63.30
2017-08-23T12:30:32.513Z,62.10
2017-08-23T12:33:00.010Z,62.50
2017-08-23T12:35:27.530Z,62.60
2017-08-23T12:37:55.030Z,63.80
2017-08-23T12:40:22.529Z,61.50
2017-08-23T12:42:50.053Z,60.90
2017-08-23T12:45:17.549Z,61.50
2017-08-23T12:47:45.050Z,61.20
2017-08-23T12:50:12.577Z,60.10
2017-08-23T12:52:40.125Z,61.60
2017-08-23T12:55:07.622Z,59.90
2017-08-23T12:57:35.150Z,62.20
2017-08-23T13:00:02.665Z,61.20
2017-08-23T13:02:30.170Z,59.80
2017-08-23T13:04:57.695Z,61.60
2017-08-23T13:07:25.194Z,61.00
2017-08-23T13:09:52.729Z,59.90
2017-08-23T13:12:20.242Z,60.30
2017-08-23T13:14:47.745Z,60.90
2017-08-23T13:17:15.246Z,61.30
2017-08-23T13:19:42.877Z,60.10
2017-08-23T13:22:10.389Z,60.00
2017-08-23T13:24:37.882Z,59.30
2017-08-23T13:27:05.406Z,59.60
2017-08-23T13:29:32.906Z,59.50
2017-08-23T13:32:00.409Z,58.70
2017-08-23T13:34:27.934Z,59.60
2017-08-23T13:36:55.434Z,59.90
2017-08-23T13:39:22.957Z,58.70
2017-08-23T13:41:50.470Z,59.80
2017-08-23T13:44:17.973Z,59.10
2017-08-23T13:46:45.494Z,59.70
2017-08-23T13:49:13.027Z,58.80
2017-08-23T13:51:40.526Z,58.60
2017-08-23T13:54:08.030Z,58.20
2017-08-23T13:56:35.550Z,58.20
2017-08-23T13:59:03.054Z,59.10
2017-08-23T14:01:30.546Z,58.40
2017-08-23T14:03:58.074Z,58.10
2017-08-23T14:06:25.566Z,59.50
2017-08-23T14:08:53.466Z,57.60
2017-08-23T14:11:20.994Z,57.60
2017-08-23T14:13:48.517Z,58.00
2017-08-23T14:16:16.022Z,58.60
2017-08-23T14:18:43.545Z,57.70
2017-08-23T14:21:11.066Z,58.20
2017-08-23T14:23:38.568Z,58.10
2017-08-23T14:26:06.145Z,57.40
2017-08-23T14:28:33.621Z,59.80
2017-08-23T14:31:01.126Z,58.20
2017-08-23T14:33:28.649Z,57.90
2017-08-23T14:35:56.149Z,56.90
2017-08-23T14:38:23.646Z,58.20
2017-08-23T14:40:51.157Z,57.10
2017-08-23T14:43:18.659Z,58.90
2017-08-23T14:45:46.163Z,58.50
2017-08-23T14:48:13.687Z,58.30
2017-08-23T14:50:41.190Z,58.20
2017-08-23T14:53:08.694Z,56.30
2017-08-23T14:55:36.218Z,57.30
2017-08-23T14:58:03.723Z,56.50
2017-08-23T15:00:31.221Z,57.30
2017-08-23T15:02:58.734Z,57.70
2017-08-23T15:05:26.230Z,57.40
2017-08-23T15:07:53.732Z,57.00
2017-08-23T15:10:21.250Z,56.70
2017-08-23T15:12:48.753Z,58.20
2017-08-23T15:15:16.258Z,56.80
2017-08-23T15:17:43.790Z,58.60
2017-08-23T15:20:11.289Z,58.80
2017-08-23T15:22:38.792Z,56.40
2017-08-23T15:25:06.325Z,56.70
2017-08-23T15:27:33.830Z,57.80
2017-08-23T15:30:01.326Z,57.80
2017-08-23T15:32:28.853Z,55.70
2017-08-23T15:34:56.313Z,55.90
2017-08-23T15:37:23.842Z,55.80
2017-08-23T15:39:51.369Z,56.10
2017-08-23T15:42:18.866Z,56.10
2017-08-23T15:44:46.362Z,56.00
2017-08-23T15:47:13.890Z,56.10
2017-08-23T15:49:41.406Z,57.90
2017-08-23T15:52:08.923Z,56.20
2017-08-23T15:54:36.454Z,56.80
2017-08-23T15:57:04.041Z,57.10
2017-08-23T15:59:31.542Z,56.60
2017-08-23T16:01:59.066Z,57.90
2017-08-23T16:04:26.570Z,58.60
2017-08-23T16:06:54.077Z,57.30
2017-08-23T16:09:21.606Z,58.00
2017-08-23T16:11:49.106Z,58.60
2017-08-23T16:14:16.610Z,59.50
2017-08-23T16:16:44.131Z,59.80
2017-08-23T16:19:11.631Z,61.60
2017-08-23T16:21:39.145Z,59.60
2017-08-23T16:24:06.698Z,60.50
2017-08-23T16:26:34.199Z,60.50
2017-08-23T16:29:01.707Z,61.50
2017-08-23T16:31:29.234Z,61.40
2017-08-23T16:33:56.738Z,61.80
2017-08-23T16:36:24.242Z,62.50
2017-08-23T16:38:51.830Z,63.60
2017-08-23T16:41:19.346Z,61.70
2017-08-23T16:43:46.846Z,62.40
2017-08-23T16:46:14.366Z,61.60
2017-08-23T16:48:41.875Z,60.90
2017-08-23T16:51:09.401Z,63.00
2017-08-23T16:53:36.898Z,61.70
2017-08-23T16:56:04.418Z,61.00
2017-08-23T16:58:31.965Z,62.60
2017-08-23T17:00:59.571Z,62.10
2017-08-23T17:03:27.075Z,62.60
2017-08-23T17:05:54.625Z,63.40
2017-08-23T17:08:22.126Z,63.00
2017-08-23T17:10:49.626Z,63.40
2017-08-23T17:13:17.198Z,63.30
2017-08-23T17:15:44.709Z,64.70
2017-08-23T17:18:12.258Z,64.90
2017-08-23T17:20:39.787Z,65.20
2017-08-23T17:23:07.296Z,64.50
2017-08-23T17:25:34.833Z,65.10
2017-08-23T17:28:03.222Z,64.90
2017-08-23T17:30:30.718Z,65.40
2017-08-23T17:32:58.218Z,65.00
2017-08-23T17:35:25.742Z,65.50
2017-08-23T17:37:53.249Z,66.00
2017-08-23T17:40:20.761Z,66.40
2017-08-23T17:42:48.298Z,67.00
2017-08-23T17:45:15.797Z,67.40
2017-08-23T17:47:43.294Z,67.60
2017-08-23T17:50:10.822Z,67.90
2017-08-23T17:52:38.326Z,68.10
2017-08-23T17:55:05.830Z,68.90
2017-08-23T17:57:33.357Z,69.40
2017-08-23T18:00:00.854Z,69.10
2017-08-23T18:02:28.730Z,69.30
2017-08-23T18:04:56.293Z,69.70
2017-08-23T18:07:23.812Z,68.60
2017-08-23T18:09:51.313Z,70.00
2017-08-23T18:12:18.841Z,69.60
2017-08-23T18:14:46.342Z,70.30
2017-08-23T18:17:13.838Z,70.60
2017-08-23T18:19:41.382Z,70.80
2017-08-23T18:22:08.881Z,71.00
2017-08-23T18:24:36.378Z,71.20
2017-08-23T18:27:03.901Z,71.40
2017-08-23T18:29:31.402Z,71.50
2017-08-23T18:31:58.905Z,72.20
2017-08-23T18:34:26.434Z,71.80
2017-08-23T18:36:53.957Z,72.10
2017-08-23T18:39:21.470Z,72.20
2017-08-23T18:41:49.001Z,72.20
2017-08-23T18:44:16.510Z,72.60
2017-08-23T18:46:44.010Z,73.10
2017-08-23T18:49:12.517Z,73.80
2017-08-23T18:51:40.082Z,74.50
2017-08-23T18:54:07.582Z,74.50
2017-08-23T18:56:35.534Z,74.30
2017-08-23T18:59:03.046Z,74.10
2017-08-23T19:01:30.546Z,74.90
2017-08-23T19:03:58.073Z,75.40
2017-08-23T19:06:25.576Z,75.50
2017-08-23T19:08:53.082Z,76.10
2017-08-23T19:11:20.606Z,76.10
2017-08-23T19:13:48.113Z,76.40
2017-08-23T19:16:15.614Z,77.40
2017-08-23T19:18:43.138Z,77.10
2017-08-23T19:21:10.641Z,78.30
2017-08-23T19:23:38.143Z,77.70
2017-08-23T19:26:05.670Z,77.60
2017-08-23T19:28:33.170Z,78.30
2017-08-23T19:31:00.695Z,79.00
2017-08-23T19:33:28.226Z,79.50
2017-08-23T19:35:55.730Z,79.60
2017-08-23T19:38:23.233Z,80.20
2017-08-23T19:40:50.765Z,81.10
2017-08-23T19:43:18.273Z,81.60
2017-08-23T19:45:45.798Z,82.60
2017-08-23T19:48:13.326Z,82.90
2017-08-23T19:50:40.850Z,83.30
2017-08-23T19:53:08.375Z,84.00
2017-08-23T19:55:35.902Z,84.20
2017-08-23T19:58:03.429Z,84.80
2017-08-23T20:00:30.954Z,85.40
2017-08-23T20:02:58.474Z,85.20
2017-08-23T20:05:26.007Z,85.70
2017-08-23T20:07:53.534Z,86.40
2017-08-23T20:10:21.038Z,86.80
2017-08-23T20:12:48.542Z,87.10
2017-08-23T20:15:16.071Z,87.20
2017-08-23T20:17:43.634Z,87.00
2017-08-23T20:20:11.138Z,87.40
2017-08-23T20:22:38.662Z,87.60
2017-08-23T20:25:06.170Z,87.80
2017-08-23T20:27:33.685Z,88.30
2017-08-23T20:30:01.222Z,88.10
2017-08-23T20:32:28.753Z,88.30
2017-08-23T20:34:56.266Z,88.20
2017-08-23T20:37:23.794Z,87.70
2017-08-23T20:39:51.318Z,88.00
2017-08-23T20:42:18.822Z,88.50
2017-08-23T20:44:46.693Z,88.80
2017-08-23T20:47:14.202Z,89.10
2017-08-23T20:49:41.708Z,89.00
2017-08-23T20:52:09.238Z,88.90
2017-08-23T20:54:36.742Z,88.70
2017-08-23T20:57:04.250Z,88.80
2017-08-23T20:59:31.847Z,88.80
2017-08-23T21:01:59.378Z,88.90
2017-08-23T21:04:26.879Z,89.40
2017-08-23T21:06:54.403Z,89.90
2017-08-23T21:09:21.955Z,89.70
2017-08-23T21:11:49.458Z,89.70
2017-08-23T21:14:16.993Z,90.00
2017-08-23T21:16:44.497Z,90.20
2017-08-23T21:19:12.010Z,90.00
2017-08-23T21:21:39.538Z,90.50
2017-08-23T21:24:07.048Z,90.70
2017-08-23T21:26:34.550Z,90.80
2017-08-23T21:29:02.083Z,90.90
2017-08-23T21:31:29.582Z,91.10
2017-08-23T21:33:57.090Z,91.70
2017-08-23T21:36:25.467Z,91.60
2017-08-23T21:38:52.974Z,91.70
2017-08-23T21:41:20.503Z,92.20
2017-08-23T21:43:48.037Z,91.80
2017-08-23T21:46:15.563Z,91.80
2017-08-23T21:48:43.095Z,91.50
2017-08-23T21:51:10.633Z,91.70
2017-08-23T21:53:38.153Z,91.40
2017-08-23T21:56:05.654Z,91.60
2017-08-23T21:58:33.177Z,91.30
2017-08-23T22:01:00.679Z,91.20
2017-08-23T22:03:28.179Z,91.00
2017-08-23T22:08:28.380Z,91.50
2017-08-23T22:10:55.886Z,91.20
2017-08-23T22:13:23.422Z,91.50
2017-08-23T22:15:51.869Z,91.50
2017-08-23T22:18:19.383Z,90.70
2017-08-23T22:20:46.893Z,91.70
2017-08-23T22:23:14.515Z,91.70
2017-08-23T22:25:42.019Z,91.50
2017-08-23T22:28:09.522Z,91.90
2017-08-23T22:30:37.427Z,92.70
2017-08-23T22:33:04.979Z,92.50
2017-08-23T22:35:32.803Z,93.10
2017-08-23T22:40:37.545Z,93.70
2017-08-23T22:43:05.079Z,93.70
2017-08-23T22:45:32.585Z,93.80
2017-08-23T22:48:00.113Z,94.20
2017-08-23T22:50:27.642Z,94.40
2017-08-23T22:52:55.178Z,94.60
2017-08-23T22:55:22.681Z,94.90
2017-08-23T22:57:50.217Z,95.40
2017-08-23T23:00:17.729Z,95.30
2017-08-23T23:02:45.233Z,95.40
2017-08-23T23:05:12.766Z,95.30
2017-08-23T23:07:40.583Z,95.80
2017-08-23T23:10:08.106Z,95.80
2017-08-23T23:12:35.641Z,96.20
2017-08-23T23:15:03.145Z,96.10
2017-08-23T23:17:30.654Z,96.30
2017-08-23T23:19:58.181Z,95.80
2017-08-23T23:22:25.694Z,95.90
2017-08-23T23:24:53.238Z,95.70
2017-08-23T23:27:20.770Z,96.40
2017-08-23T23:29:48.278Z,96.40
2017-08-23T23:32:15.778Z,96.10
2017-08-23T23:34:43.725Z,95.70
2017-08-23T23:37:11.227Z,96.20
2017-08-23T23:39:38.748Z,96.60
2017-08-23T23:42:06.299Z,96.00
2017-08-23T23:44:33.802Z,96.40
2017-08-23T23:47:01.308Z,96.20
2017-08-23T23:49:28.849Z,96.30
2017-08-23T23:51:56.366Z,96.50
2017-08-23T23:54:23.869Z,96.40
2017-08-23T23:56:51.417Z,96.40
2017-08-23T23:59:18.931Z,96.80
